sensor_id;sensor_type;location;lat;lon;timestamp;P1;durP1;ratioP1;P2;durP2;ratioP2
10882;SDS011;5494;51.796;10.952;2022-08-19T00:02:02;14.93;;;13.23;;
10882;SDS011;5494;51.796;10.952;2022-08-19T00:04:32;14.80;;;12.87;;
10882;SDS011;5494;51.796;10.952;2022-08-19T00:07:03;15.03;;;13.53;;
10882;SDS011;5494;51.796;10.952;2022-08-19T00:09:34;14.73;;;13.23;;
10882;SDS011;5494;51.796;10.952;2022-08-19T00:12:02;14.40;;;12.97;;
10882;SDS011;5494;51.796;10.952;2022-08-19T00:14:33;16.00;;;12.87;;
10882;SDS011;5494;51.796;10.952;2022-08-19T00:17:02;16.03;;;13.53;;
10882;SDS011;5494;51.796;10.952;2022-08-19T00:19:33;19.30;;;12.97;;
10882;SDS011;5494;51.796;10.952;2022-08-19T00:22:03;15.63;;;12.83;;
10882;SDS011;5494;51.796;10.952;2022-08-19T00:24:32;14.10;;;12.60;;
10882;SDS011;5494;51.796;10.952;2022-08-19T00:27:01;13.93;;;12.63;;
10882;SDS011;5494;51.796;10.952;2022-08-19T00:29:51;15.07;;;13.47;;
10882;SDS011;5494;51.796;10.952;2022-08-19T00:32:20;14.50;;;12.93;;
10882;SDS011;5494;51.796;10.952;2022-08-19T00:34:49;16.70;;;14.07;;
10882;SDS011;5494;51.796;10.952;2022-08-19T00:37:20;14.50;;;12.90;;
10882;SDS011;5494;51.796;10.952;2022-08-19T00:39:50;15.57;;;13.43;;
10882;SDS011;5494;51.796;10.952;2022-08-19T00:42:19;16.37;;;13.67;;
10882;SDS011;5494;51.796;10.952;2022-08-19T00:44:49;16.43;;;14.00;;
10882;SDS011;5494;51.796;10.952;2022-08-19T00:47:19;16.10;;;14.40;;
10882;SDS011;5494;51.796;10.952;2022-08-19T00:49:49;15.80;;;13.63;;
10882;SDS011;5494;51.796;10.952;2022-08-19T00:52:22;16.77;;;13.93;;
10882;SDS011;5494;51.796;10.952;2022-08-19T00:54:56;17.03;;;13.93;;
10882;SDS011;5494;51.796;10.952;2022-08-19T00:57:28;15.83;;;14.00;;
10882;SDS011;5494;51.796;10.952;2022-08-19T01:00:05;14.00;;;12.60;;
10882;SDS011;5494;51.796;10.952;2022-08-19T01:02:39;16.40;;;14.47;;
10882;SDS011;5494;51.796;10.952;2022-08-19T01:05:10;14.97;;;13.37;;
10882;SDS011;5494;51.796;10.952;2022-08-19T01:07:47;16.27;;;13.83;;
10882;SDS011;5494;51.796;10.952;2022-08-19T01:10:19;18.50;;;12.83;;
10882;SDS011;5494;51.796;10.952;2022-08-19T01:12:51;15.43;;;13.63;;
10882;SDS011;5494;51.796;10.952;2022-08-19T01:15:22;18.23;;;14.43;;
10882;SDS011;5494;51.796;10.952;2022-08-19T01:17:58;15.57;;;13.87;;
10882;SDS011;5494;51.796;10.952;2022-08-19T01:20:31;15.00;;;13.50;;
10882;SDS011;5494;51.796;10.952;2022-08-19T01:23:02;17.77;;;14.43;;
10882;SDS011;5494;51.796;10.952;2022-08-19T01:25:32;15.70;;;14.10;;
10882;SDS011;5494;51.796;10.952;2022-08-19T01:28:15;17.50;;;13.90;;
10882;SDS011;5494;51.796;10.952;2022-08-19T01:30:59;16.23;;;14.53;;
10882;SDS011;5494;51.796;10.952;2022-08-19T01:33:34;18.07;;;14.60;;
10882;SDS011;5494;51.796;10.952;2022-08-19T01:36:03;17.83;;;14.83;;
10882;SDS011;5494;51.796;10.952;2022-08-19T01:38:37;17.53;;;14.57;;
10882;SDS011;5494;51.796;10.952;2022-08-19T01:41:10;19.23;;;14.63;;
10882;SDS011;5494;51.796;10.952;2022-08-19T01:43:40;18.30;;;14.97;;
10882;SDS011;5494;51.796;10.952;2022-08-19T01:46:28;16.70;;;14.50;;
10882;SDS011;5494;51.796;10.952;2022-08-19T01:48:57;17.70;;;14.27;;
10882;SDS011;5494;51.796;10.952;2022-08-19T01:51:27;15.53;;;13.93;;
10882;SDS011;5494;51.796;10.952;2022-08-19T01:54:07;17.30;;;14.33;;
10882;SDS011;5494;51.796;10.952;2022-08-19T01:56:37;16.57;;;14.87;;
10882;SDS011;5494;51.796;10.952;2022-08-19T01:59:08;16.67;;;14.40;;
10882;SDS011;5494;51.796;10.952;2022-08-19T02:01:42;15.97;;;14.27;;
10882;SDS011;5494;51.796;10.952;2022-08-19T02:04:11;17.17;;;14.40;;
10882;SDS011;5494;51.796;10.952;2022-08-19T02:06:39;16.33;;;14.03;;
10882;SDS011;5494;51.796;10.952;2022-08-19T02:09:09;17.80;;;14.87;;
10882;SDS011;5494;51.796;10.952;2022-08-19T02:11:38;16.60;;;13.93;;
10882;SDS011;5494;51.796;10.952;2022-08-19T02:14:07;16.30;;;14.60;;
10882;SDS011;5494;51.796;10.952;2022-08-19T02:16:36;18.67;;;14.43;;
10882;SDS011;5494;51.796;10.952;2022-08-19T02:19:06;17.87;;;14.77;;
10882;SDS011;5494;51.796;10.952;2022-08-19T02:21:35;19.10;;;14.30;;
10882;SDS011;5494;51.796;10.952;2022-08-19T02:24:04;17.50;;;14.47;;
10882;SDS011;5494;51.796;10.952;2022-08-19T02:26:34;20.20;;;15.50;;
10882;SDS011;5494;51.796;10.952;2022-08-19T02:29:03;17.47;;;15.77;;
10882;SDS011;5494;51.796;10.952;2022-08-19T02:31:32;17.73;;;15.30;;
10882;SDS011;5494;51.796;10.952;2022-08-19T02:34:00;20.73;;;16.63;;
10882;SDS011;5494;51.796;10.952;2022-08-19T02:36:29;18.90;;;16.80;;
10882;SDS011;5494;51.796;10.952;2022-08-19T02:38:58;22.83;;;16.50;;
10882;SDS011;5494;51.796;10.952;2022-08-19T02:41:27;22.77;;;16.90;;
10882;SDS011;5494;51.796;10.952;2022-08-19T02:44:00;22.10;;;18.17;;
10882;SDS011;5494;51.796;10.952;2022-08-19T02:46:51;21.67;;;18.07;;
10882;SDS011;5494;51.796;10.952;2022-08-19T02:49:20;23.40;;;17.67;;
10882;SDS011;5494;51.796;10.952;2022-08-19T02:51:49;19.80;;;16.97;;
10882;SDS011;5494;51.796;10.952;2022-08-19T02:54:17;18.13;;;15.90;;
10882;SDS011;5494;51.796;10.952;2022-08-19T02:56:46;22.53;;;15.73;;
10882;SDS011;5494;51.796;10.952;2022-08-19T02:59:16;18.67;;;16.17;;
10882;SDS011;5494;51.796;10.952;2022-08-19T03:01:48;19.70;;;16.07;;
10882;SDS011;5494;51.796;10.952;2022-08-19T03:04:17;20.70;;;16.40;;
10882;SDS011;5494;51.796;10.952;2022-08-19T03:06:47;17.93;;;15.83;;
10882;SDS011;5494;51.796;10.952;2022-08-19T03:09:16;21.60;;;16.07;;
10882;SDS011;5494;51.796;10.952;2022-08-19T03:11:46;19.23;;;15.53;;
10882;SDS011;5494;51.796;10.952;2022-08-19T03:14:20;26.00;;;16.00;;
10882;SDS011;5494;51.796;10.952;2022-08-19T03:16:50;19.43;;;15.27;;
10882;SDS011;5494;51.796;10.952;2022-08-19T03:19:19;17.83;;;14.80;;
10882;SDS011;5494;51.796;10.952;2022-08-19T03:21:49;19.60;;;14.83;;
10882;SDS011;5494;51.796;10.952;2022-08-19T03:24:18;19.57;;;14.70;;
10882;SDS011;5494;51.796;10.952;2022-08-19T03:26:48;15.60;;;13.90;;
10882;SDS011;5494;51.796;10.952;2022-08-19T03:29:25;15.47;;;13.40;;
10882;SDS011;5494;51.796;10.952;2022-08-19T03:31:58;18.03;;;14.10;;
10882;SDS011;5494;51.796;10.952;2022-08-19T03:34:31;15.87;;;13.83;;
10882;SDS011;5494;51.796;10.952;2022-08-19T03:37:04;18.10;;;13.90;;
10882;SDS011;5494;51.796;10.952;2022-08-19T03:39:35;17.97;;;14.70;;
10882;SDS011;5494;51.796;10.952;2022-08-19T03:42:06;18.47;;;14.23;;
10882;SDS011;5494;51.796;10.952;2022-08-19T03:44:56;17.83;;;14.53;;
10882;SDS011;5494;51.796;10.952;2022-08-19T03:47:26;18.73;;;15.80;;
10882;SDS011;5494;51.796;10.952;2022-08-19T03:49:54;18.83;;;15.47;;
10882;SDS011;5494;51.796;10.952;2022-08-19T03:52:22;18.77;;;14.37;;
10882;SDS011;5494;51.796;10.952;2022-08-19T03:54:51;19.27;;;15.33;;
10882;SDS011;5494;51.796;10.952;2022-08-19T03:57:19;18.60;;;15.63;;
10882;SDS011;5494;51.796;10.952;2022-08-19T03:59:58;19.83;;;16.07;;
10882;SDS011;5494;51.796;10.952;2022-08-19T04:02:38;19.57;;;16.47;;
10882;SDS011;5494;51.796;10.952;2022-08-19T04:05:07;20.30;;;15.47;;
10882;SDS011;5494;51.796;10.952;2022-08-19T04:07:37;18.90;;;16.17;;
10882;SDS011;5494;51.796;10.952;2022-08-19T04:10:05;20.23;;;15.63;;
10882;SDS011;5494;51.796;10.952;2022-08-19T04:12:37;20.50;;;14.70;;
10882;SDS011;5494;51.796;10.952;2022-08-19T04:15:08;20.07;;;14.77;;
10882;SDS011;5494;51.796;10.952;2022-08-19T04:17:37;18.77;;;14.87;;
10882;SDS011;5494;51.796;10.952;2022-08-19T04:20:07;17.27;;;13.50;;
10882;SDS011;5494;51.796;10.952;2022-08-19T04:22:37;17.47;;;14.13;;
10882;SDS011;5494;51.796;10.952;2022-08-19T04:25:05;18.70;;;14.10;;
10882;SDS011;5494;51.796;10.952;2022-08-19T04:27:34;16.33;;;13.20;;
10882;SDS011;5494;51.796;10.952;2022-08-19T04:30:03;16.50;;;14.80;;
10882;SDS011;5494;51.796;10.952;2022-08-19T04:32:34;17.60;;;14.50;;
10882;SDS011;5494;51.796;10.952;2022-08-19T04:35:02;16.43;;;14.07;;
10882;SDS011;5494;51.796;10.952;2022-08-19T04:37:44;17.20;;;14.67;;
10882;SDS011;5494;51.796;10.952;2022-08-19T04:40:12;16.83;;;13.67;;
10882;SDS011;5494;51.796;10.952;2022-08-19T04:42:55;15.50;;;13.23;;
10882;SDS011;5494;51.796;10.952;2022-08-19T04:45:24;17.27;;;13.47;;
10882;SDS011;5494;51.796;10.952;2022-08-19T04:47:54;17.60;;;13.60;;
10882;SDS011;5494;51.796;10.952;2022-08-19T04:50:43;17.07;;;14.47;;
10882;SDS011;5494;51.796;10.952;2022-08-19T04:53:12;18.10;;;15.43;;
10882;SDS011;5494;51.796;10.952;2022-08-19T04:55:41;20.47;;;16.30;;
10882;SDS011;5494;51.796;10.952;2022-08-19T04:58:09;18.60;;;16.37;;
10882;SDS011;5494;51.796;10.952;2022-08-19T05:00:38;19.10;;;15.57;;
10882;SDS011;5494;51.796;10.952;2022-08-19T05:03:09;18.93;;;16.30;;
10882;SDS011;5494;51.796;10.952;2022-08-19T05:05:38;20.27;;;15.83;;
10882;SDS011;5494;51.796;10.952;2022-08-19T05:08:11;20.67;;;16.17;;
10882;SDS011;5494;51.796;10.952;2022-08-19T05:10:41;18.70;;;15.90;;
10882;SDS011;5494;51.796;10.952;2022-08-19T05:13:09;20.80;;;16.90;;
10882;SDS011;5494;51.796;10.952;2022-08-19T05:15:38;21.13;;;17.43;;
10882;SDS011;5494;51.796;10.952;2022-08-19T05:18:07;20.53;;;16.40;;
10882;SDS011;5494;51.796;10.952;2022-08-19T05:20:54;18.63;;;15.57;;
10882;SDS011;5494;51.796;10.952;2022-08-19T05:23:40;20.97;;;15.13;;
10882;SDS011;5494;51.796;10.952;2022-08-19T05:26:09;18.23;;;16.10;;
10882;SDS011;5494;51.796;10.952;2022-08-19T05:28:37;16.90;;;14.27;;
10882;SDS011;5494;51.796;10.952;2022-08-19T05:31:06;14.93;;;13.27;;
10882;SDS011;5494;51.796;10.952;2022-08-19T05:33:36;17.07;;;13.23;;
10882;SDS011;5494;51.796;10.952;2022-08-19T05:36:06;15.47;;;13.70;;
10882;SDS011;5494;51.796;10.952;2022-08-19T05:38:36;15.67;;;13.63;;
10882;SDS011;5494;51.796;10.952;2022-08-19T05:41:06;13.97;;;12.27;;
10882;SDS011;5494;51.796;10.952;2022-08-19T05:43:36;14.63;;;11.63;;
10882;SDS011;5494;51.796;10.952;2022-08-19T05:46:06;12.40;;;11.07;;
10882;SDS011;5494;51.796;10.952;2022-08-19T05:48:37;12.03;;;10.40;;
10882;SDS011;5494;51.796;10.952;2022-08-19T05:51:06;12.13;;;10.37;;
10882;SDS011;5494;51.796;10.952;2022-08-19T05:53:36;13.77;;;11.03;;
10882;SDS011;5494;51.796;10.952;2022-08-19T05:56:05;12.03;;;10.33;;
10882;SDS011;5494;51.796;10.952;2022-08-19T05:58:36;15.10;;;10.77;;
10882;SDS011;5494;51.796;10.952;2022-08-19T06:01:08;12.47;;;10.47;;
10882;SDS011;5494;51.796;10.952;2022-08-19T06:03:43;12.30;;;9.47;;
10882;SDS011;5494;51.796;10.952;2022-08-19T06:06:12;11.63;;;10.43;;
10882;SDS011;5494;51.796;10.952;2022-08-19T06:08:43;12.50;;;10.20;;
10882;SDS011;5494;51.796;10.952;2022-08-19T06:11:19;16.10;;;11.13;;
10882;SDS011;5494;51.796;10.952;2022-08-19T06:13:50;14.20;;;11.70;;
10882;SDS011;5494;51.796;10.952;2022-08-19T06:16:26;13.43;;;10.97;;
10882;SDS011;5494;51.796;10.952;2022-08-19T06:18:58;14.40;;;12.10;;
10882;SDS011;5494;51.796;10.952;2022-08-19T06:21:33;15.73;;;12.13;;
10882;SDS011;5494;51.796;10.952;2022-08-19T06:24:05;14.40;;;12.03;;
10882;SDS011;5494;51.796;10.952;2022-08-19T06:26:37;16.00;;;13.30;;
10882;SDS011;5494;51.796;10.952;2022-08-19T06:29:09;15.60;;;12.70;;
10882;SDS011;5494;51.796;10.952;2022-08-19T06:31:50;17.27;;;14.33;;
10882;SDS011;5494;51.796;10.952;2022-08-19T06:34:24;15.93;;;13.27;;
10882;SDS011;5494;51.796;10.952;2022-08-19T06:36:55;16.83;;;14.27;;
10882;SDS011;5494;51.796;10.952;2022-08-19T06:39:28;18.60;;;15.20;;
10882;SDS011;5494;51.796;10.952;2022-08-19T06:42:00;18.33;;;14.50;;
10882;SDS011;5494;51.796;10.952;2022-08-19T06:44:37;21.00;;;15.60;;
10882;SDS011;5494;51.796;10.952;2022-08-19T06:47:16;18.87;;;14.43;;
10882;SDS011;5494;51.796;10.952;2022-08-19T06:49:55;19.13;;;14.83;;
10882;SDS011;5494;51.796;10.952;2022-08-19T06:52:30;18.57;;;15.40;;
10882;SDS011;5494;51.796;10.952;2022-08-19T06:55:02;19.87;;;15.17;;
10882;SDS011;5494;51.796;10.952;2022-08-19T06:57:35;18.50;;;14.47;;
10882;SDS011;5494;51.796;10.952;2022-08-19T07:00:04;20.60;;;15.43;;
10882;SDS011;5494;51.796;10.952;2022-08-19T07:02:38;18.47;;;15.87;;
10882;SDS011;5494;51.796;10.952;2022-08-19T07:05:15;17.37;;;14.70;;
10882;SDS011;5494;51.796;10.952;2022-08-19T07:07:46;19.87;;;16.10;;
10882;SDS011;5494;51.796;10.952;2022-08-19T07:10:17;19.17;;;14.17;;
10882;SDS011;5494;51.796;10.952;2022-08-19T07:12:46;17.27;;;15.20;;
10882;SDS011;5494;51.796;10.952;2022-08-19T07:15:16;19.37;;;15.53;;
10882;SDS011;5494;51.796;10.952;2022-08-19T07:17:47;20.70;;;15.57;;
10882;SDS011;5494;51.796;10.952;2022-08-19T07:20:19;15.87;;;14.23;;
10882;SDS011;5494;51.796;10.952;2022-08-19T07:22:54;17.63;;;15.13;;
10882;SDS011;5494;51.796;10.952;2022-08-19T07:25:22;17.00;;;14.30;;
10882;SDS011;5494;51.796;10.952;2022-08-19T07:27:58;16.60;;;14.67;;
10882;SDS011;5494;51.796;10.952;2022-08-19T07:30:27;16.50;;;13.90;;
10882;SDS011;5494;51.796;10.952;2022-08-19T07:32:57;14.30;;;12.70;;
10882;SDS011;5494;51.796;10.952;2022-08-19T07:35:30;14.07;;;12.07;;
10882;SDS011;5494;51.796;10.952;2022-08-19T07:38:00;14.73;;;13.17;;
10882;SDS011;5494;51.796;10.952;2022-08-19T07:40:30;14.73;;;12.90;;
10882;SDS011;5494;51.796;10.952;2022-08-19T07:42:59;14.23;;;12.77;;
10882;SDS011;5494;51.796;10.952;2022-08-19T07:45:27;15.13;;;13.20;;
10882;SDS011;5494;51.796;10.952;2022-08-19T07:47:56;13.53;;;12.13;;
10882;SDS011;5494;51.796;10.952;2022-08-19T07:50:24;14.07;;;12.33;;
10882;SDS011;5494;51.796;10.952;2022-08-19T07:52:57;15.10;;;12.47;;
10882;SDS011;5494;51.796;10.952;2022-08-19T07:55:26;13.97;;;12.47;;
10882;SDS011;5494;51.796;10.952;2022-08-19T07:58:09;15.77;;;13.20;;
10882;SDS011;5494;51.796;10.952;2022-08-19T08:00:40;13.43;;;11.90;;
10882;SDS011;5494;51.796;10.952;2022-08-19T08:03:09;14.97;;;13.03;;
10882;SDS011;5494;51.796;10.952;2022-08-19T08:05:39;14.97;;;13.20;;
10882;SDS011;5494;51.796;10.952;2022-08-19T08:08:27;14.70;;;13.13;;
10882;SDS011;5494;51.796;10.952;2022-08-19T08:11:15;15.40;;;13.43;;
10882;SDS011;5494;51.796;10.952;2022-08-19T08:13:47;15.27;;;12.83;;
10882;SDS011;5494;51.796;10.952;2022-08-19T08:16:30;16.37;;;13.63;;
10882;SDS011;5494;51.796;10.952;2022-08-19T08:19:13;15.00;;;12.73;;
10882;SDS011;5494;51.796;10.952;2022-08-19T08:21:53;19.10;;;12.97;;
10882;SDS011;5494;51.796;10.952;2022-08-19T08:24:25;16.30;;;13.50;;
10882;SDS011;5494;51.796;10.952;2022-08-19T08:26:57;13.67;;;12.23;;
10882;SDS011;5494;51.796;10.952;2022-08-19T08:29:36;13.60;;;12.20;;
10882;SDS011;5494;51.796;10.952;2022-08-19T08:32:07;14.23;;;11.93;;
10882;SDS011;5494;51.796;10.952;2022-08-19T08:34:40;14.20;;;11.23;;
10882;SDS011;5494;51.796;10.952;2022-08-19T08:37:09;13.73;;;11.40;;
10882;SDS011;5494;51.796;10.952;2022-08-19T08:39:42;14.33;;;11.43;;
10882;SDS011;5494;51.796;10.952;2022-08-19T08:42:15;13.93;;;11.27;;
10882;SDS011;5494;51.796;10.952;2022-08-19T08:44:56;13.90;;;11.03;;
10882;SDS011;5494;51.796;10.952;2022-08-19T08:47:29;15.97;;;12.43;;
10882;SDS011;5494;51.796;10.952;2022-08-19T08:50:08;13.20;;;11.60;;
10882;SDS011;5494;51.796;10.952;2022-08-19T08:52:43;15.67;;;11.83;;
10882;SDS011;5494;51.796;10.952;2022-08-19T08:55:20;13.07;;;11.30;;
10882;SDS011;5494;51.796;10.952;2022-08-19T08:58:03;15.47;;;12.13;;
10882;SDS011;5494;51.796;10.952;2022-08-19T09:00:43;14.53;;;11.90;;
10882;SDS011;5494;51.796;10.952;2022-08-19T09:03:17;13.47;;;11.30;;
10882;SDS011;5494;51.796;10.952;2022-08-19T09:05:53;12.93;;;11.10;;
10882;SDS011;5494;51.796;10.952;2022-08-19T09:08:33;12.80;;;11.13;;
10882;SDS011;5494;51.796;10.952;2022-08-19T09:11:15;12.33;;;10.93;;
10882;SDS011;5494;51.796;10.952;2022-08-19T09:14:12;12.20;;;10.50;;
10882;SDS011;5494;51.796;10.952;2022-08-19T09:17:17;11.13;;;10.03;;
10882;SDS011;5494;51.796;10.952;2022-08-19T09:19:58;15.27;;;11.17;;
10882;SDS011;5494;51.796;10.952;2022-08-19T09:22:35;12.03;;;10.83;;
10882;SDS011;5494;51.796;10.952;2022-08-19T09:25:05;11.83;;;10.60;;
10882;SDS011;5494;51.796;10.952;2022-08-19T09:27:38;14.23;;;11.10;;
10882;SDS011;5494;51.796;10.952;2022-08-19T09:30:12;11.47;;;10.23;;
10882;SDS011;5494;51.796;10.952;2022-08-19T09:32:43;11.03;;;9.93;;
10882;SDS011;5494;51.796;10.952;2022-08-19T09:35:19;12.40;;;10.73;;
10882;SDS011;5494;51.796;10.952;2022-08-19T09:37:50;12.13;;;10.20;;
10882;SDS011;5494;51.796;10.952;2022-08-19T09:40:25;10.90;;;9.80;;
10882;SDS011;5494;51.796;10.952;2022-08-19T09:42:58;9.97;;;9.07;;
10882;SDS011;5494;51.796;10.952;2022-08-19T09:45:39;10.53;;;9.40;;
10882;SDS011;5494;51.796;10.952;2022-08-19T09:48:07;10.37;;;9.37;;
10882;SDS011;5494;51.796;10.952;2022-08-19T09:50:37;11.83;;;10.57;;
10882;SDS011;5494;51.796;10.952;2022-08-19T09:53:17;10.43;;;9.30;;
10882;SDS011;5494;51.796;10.952;2022-08-19T09:55:51;10.03;;;9.03;;
10882;SDS011;5494;51.796;10.952;2022-08-19T09:58:23;10.03;;;9.03;;
10882;SDS011;5494;51.796;10.952;2022-08-19T10:00:54;10.57;;;9.20;;
10882;SDS011;5494;51.796;10.952;2022-08-19T10:03:23;10.43;;;9.37;;
10882;SDS011;5494;51.796;10.952;2022-08-19T10:05:56;10.73;;;9.23;;
10882;SDS011;5494;51.796;10.952;2022-08-19T10:08:28;10.93;;;9.70;;
10882;SDS011;5494;51.796;10.952;2022-08-19T10:11:00;10.20;;;9.27;;
10882;SDS011;5494;51.796;10.952;2022-08-19T10:13:55;11.00;;;9.87;;
10882;SDS011;5494;51.796;10.952;2022-08-19T10:16:23;10.83;;;9.70;;
10882;SDS011;5494;51.796;10.952;2022-08-19T10:18:57;10.53;;;9.60;;
10882;SDS011;5494;51.796;10.952;2022-08-19T10:21:30;11.23;;;9.97;;
10882;SDS011;5494;51.796;10.952;2022-08-19T10:24:01;9.93;;;8.93;;
10882;SDS011;5494;51.796;10.952;2022-08-19T10:26:35;9.80;;;8.90;;
10882;SDS011;5494;51.796;10.952;2022-08-19T10:29:09;9.57;;;8.67;;
10882;SDS011;5494;51.796;10.952;2022-08-19T10:31:38;10.03;;;9.03;;
10882;SDS011;5494;51.796;10.952;2022-08-19T10:34:27;9.80;;;8.87;;
10882;SDS011;5494;51.796;10.952;2022-08-19T10:36:57;9.50;;;8.53;;
10882;SDS011;5494;51.796;10.952;2022-08-19T10:39:28;9.83;;;8.80;;
10882;SDS011;5494;51.796;10.952;2022-08-19T10:42:07;9.40;;;8.50;;
10882;SDS011;5494;51.796;10.952;2022-08-19T10:44:38;9.60;;;8.70;;
10882;SDS011;5494;51.796;10.952;2022-08-19T10:47:07;10.37;;;8.57;;
10882;SDS011;5494;51.796;10.952;2022-08-19T10:49:50;9.13;;;8.23;;
10882;SDS011;5494;51.796;10.952;2022-08-19T10:52:38;10.90;;;9.80;;
10882;SDS011;5494;51.796;10.952;2022-08-19T10:55:17;9.37;;;8.47;;
10882;SDS011;5494;51.796;10.952;2022-08-19T10:58:09;9.97;;;9.07;;
10882;SDS011;5494;51.796;10.952;2022-08-19T11:00:41;9.53;;;8.63;;
10882;SDS011;5494;51.796;10.952;2022-08-19T11:03:11;10.00;;;9.00;;
10882;SDS011;5494;51.796;10.952;2022-08-19T11:05:39;8.97;;;8.07;;
10882;SDS011;5494;51.796;10.952;2022-08-19T11:08:08;7.97;;;7.33;;
10882;SDS011;5494;51.796;10.952;2022-08-19T11:10:50;7.33;;;6.70;;
10882;SDS011;5494;51.796;10.952;2022-08-19T11:13:27;7.80;;;7.00;;
10882;SDS011;5494;51.796;10.952;2022-08-19T11:15:59;8.17;;;7.37;;
10882;SDS011;5494;51.796;10.952;2022-08-19T11:18:34;7.83;;;7.10;;
10882;SDS011;5494;51.796;10.952;2022-08-19T11:21:07;7.53;;;6.80;;
10882;SDS011;5494;51.796;10.952;2022-08-19T11:23:39;7.47;;;6.63;;
10882;SDS011;5494;51.796;10.952;2022-08-19T11:26:08;7.57;;;6.80;;
10882;SDS011;5494;51.796;10.952;2022-08-19T11:28:37;8.13;;;7.33;;
10882;SDS011;5494;51.796;10.952;2022-08-19T11:31:10;8.17;;;7.13;;
10882;SDS011;5494;51.796;10.952;2022-08-19T11:33:40;7.37;;;6.60;;
10882;SDS011;5494;51.796;10.952;2022-08-19T11:36:13;6.97;;;6.37;;
10882;SDS011;5494;51.796;10.952;2022-08-19T11:38:43;7.53;;;6.57;;
10882;SDS011;5494;51.796;10.952;2022-08-19T11:41:15;8.73;;;7.67;;
10882;SDS011;5494;51.796;10.952;2022-08-19T11:43:47;9.00;;;7.50;;
10882;SDS011;5494;51.796;10.952;2022-08-19T11:46:17;9.50;;;8.60;;
10882;SDS011;5494;51.796;10.952;2022-08-19T11:48:46;8.20;;;7.33;;
10882;SDS011;5494;51.796;10.952;2022-08-19T11:51:15;9.27;;;8.37;;
10882;SDS011;5494;51.796;10.952;2022-08-19T11:53:46;9.33;;;8.43;;
10882;SDS011;5494;51.796;10.952;2022-08-19T11:56:16;8.23;;;7.43;;
10882;SDS011;5494;51.796;10.952;2022-08-19T11:58:46;8.93;;;7.50;;
10882;SDS011;5494;51.796;10.952;2022-08-19T12:01:17;10.37;;;9.30;;
10882;SDS011;5494;51.796;10.952;2022-08-19T12:03:49;11.93;;;9.60;;
10882;SDS011;5494;51.796;10.952;2022-08-19T12:06:21;11.43;;;10.23;;
10882;SDS011;5494;51.796;10.952;2022-08-19T12:08:54;11.73;;;9.77;;
10882;SDS011;5494;51.796;10.952;2022-08-19T12:11:24;11.10;;;8.90;;
10882;SDS011;5494;51.796;10.952;2022-08-19T12:13:54;10.30;;;9.20;;
10882;SDS011;5494;51.796;10.952;2022-08-19T12:16:25;10.10;;;9.10;;
10882;SDS011;5494;51.796;10.952;2022-08-19T12:18:58;10.27;;;8.83;;
10882;SDS011;5494;51.796;10.952;2022-08-19T12:21:31;8.90;;;8.07;;
10882;SDS011;5494;51.796;10.952;2022-08-19T12:24:06;10.77;;;7.97;;
10882;SDS011;5494;51.796;10.952;2022-08-19T12:26:35;9.87;;;7.87;;
10882;SDS011;5494;51.796;10.952;2022-08-19T12:29:23;9.47;;;8.00;;
10882;SDS011;5494;51.796;10.952;2022-08-19T12:31:56;7.90;;;6.97;;
10882;SDS011;5494;51.796;10.952;2022-08-19T12:34:29;12.03;;;10.67;;
10882;SDS011;5494;51.796;10.952;2022-08-19T12:37:01;10.03;;;9.03;;
10882;SDS011;5494;51.796;10.952;2022-08-19T12:39:35;10.07;;;8.93;;
10882;SDS011;5494;51.796;10.952;2022-08-19T12:42:09;12.00;;;8.67;;
10882;SDS011;5494;51.796;10.952;2022-08-19T12:44:39;9.97;;;8.40;;
10882;SDS011;5494;51.796;10.952;2022-08-19T12:47:12;8.63;;;7.80;;
10882;SDS011;5494;51.796;10.952;2022-08-19T12:49:41;9.53;;;8.40;;
10882;SDS011;5494;51.796;10.952;2022-08-19T12:52:20;9.60;;;8.60;;
10882;SDS011;5494;51.796;10.952;2022-08-19T12:54:51;10.53;;;8.50;;
10882;SDS011;5494;51.796;10.952;2022-08-19T12:57:22;9.87;;;8.87;;
10882;SDS011;5494;51.796;10.952;2022-08-19T12:59:59;9.33;;;8.43;;
10882;SDS011;5494;51.796;10.952;2022-08-19T13:02:34;8.50;;;7.60;;
10882;SDS011;5494;51.796;10.952;2022-08-19T13:05:06;7.93;;;7.23;;
10882;SDS011;5494;51.796;10.952;2022-08-19T13:07:38;8.40;;;7.43;;
10882;SDS011;5494;51.796;10.952;2022-08-19T13:10:11;7.03;;;6.33;;
10882;SDS011;5494;51.796;10.952;2022-08-19T13:12:42;8.23;;;6.57;;
10882;SDS011;5494;51.796;10.952;2022-08-19T13:15:12;7.73;;;6.93;;
10882;SDS011;5494;51.796;10.952;2022-08-19T13:17:51;7.33;;;6.13;;
10882;SDS011;5494;51.796;10.952;2022-08-19T13:20:23;6.70;;;6.00;;
10882;SDS011;5494;51.796;10.952;2022-08-19T13:22:53;6.70;;;5.53;;
10882;SDS011;5494;51.796;10.952;2022-08-19T13:25:24;7.50;;;6.70;;
10882;SDS011;5494;51.796;10.952;2022-08-19T13:27:53;6.77;;;6.17;;
10882;SDS011;5494;51.796;10.952;2022-08-19T13:30:21;7.27;;;5.63;;
10882;SDS011;5494;51.796;10.952;2022-08-19T13:33:09;6.30;;;5.33;;
10882;SDS011;5494;51.796;10.952;2022-08-19T13:35:42;5.87;;;5.27;;
10882;SDS011;5494;51.796;10.952;2022-08-19T13:38:15;6.63;;;5.97;;
10882;SDS011;5494;51.796;10.952;2022-08-19T13:40:47;6.90;;;6.20;;
10882;SDS011;5494;51.796;10.952;2022-08-19T13:43:18;6.30;;;5.70;;
10882;SDS011;5494;51.796;10.952;2022-08-19T13:45:50;6.83;;;6.00;;
10882;SDS011;5494;51.796;10.952;2022-08-19T13:48:25;6.03;;;5.43;;
10882;SDS011;5494;51.796;10.952;2022-08-19T13:50:53;5.90;;;5.30;;
10882;SDS011;5494;51.796;10.952;2022-08-19T13:53:22;8.47;;;6.73;;
10882;SDS011;5494;51.796;10.952;2022-08-19T13:55:51;7.07;;;6.37;;
10882;SDS011;5494;51.796;10.952;2022-08-19T13:58:20;8.47;;;6.63;;
10882;SDS011;5494;51.796;10.952;2022-08-19T14:00:49;8.33;;;6.00;;
10882;SDS011;5494;51.796;10.952;2022-08-19T14:03:17;10.60;;;6.67;;
10882;SDS011;5494;51.796;10.952;2022-08-19T14:05:48;6.97;;;5.60;;
10882;SDS011;5494;51.796;10.952;2022-08-19T14:08:17;5.87;;;4.63;;
10882;SDS011;5494;51.796;10.952;2022-08-19T14:10:46;4.37;;;3.97;;
10882;SDS011;5494;51.796;10.952;2022-08-19T14:13:15;6.20;;;4.20;;
10882;SDS011;5494;51.796;10.952;2022-08-19T14:15:47;7.67;;;4.67;;
10882;SDS011;5494;51.796;10.952;2022-08-19T14:18:17;5.67;;;5.17;;
10882;SDS011;5494;51.796;10.952;2022-08-19T14:20:48;5.37;;;4.83;;
10882;SDS011;5494;51.796;10.952;2022-08-19T14:23:17;5.90;;;3.83;;
10882;SDS011;5494;51.796;10.952;2022-08-19T14:25:47;5.97;;;4.30;;
10882;SDS011;5494;51.796;10.952;2022-08-19T14:28:15;4.27;;;3.87;;
10882;SDS011;5494;51.796;10.952;2022-08-19T14:30:43;5.60;;;4.80;;
10882;SDS011;5494;51.796;10.952;2022-08-19T14:33:12;4.50;;;4.20;;
10882;SDS011;5494;51.796;10.952;2022-08-19T14:35:40;5.40;;;3.80;;
10882;SDS011;5494;51.796;10.952;2022-08-19T14:38:17;6.00;;;4.43;;
10882;SDS011;5494;51.796;10.952;2022-08-19T14:41:05;5.13;;;3.80;;
10882;SDS011;5494;51.796;10.952;2022-08-19T14:43:37;5.10;;;4.63;;
10882;SDS011;5494;51.796;10.952;2022-08-19T14:46:06;4.60;;;4.07;;
10882;SDS011;5494;51.796;10.952;2022-08-19T14:48:36;4.97;;;4.20;;
10882;SDS011;5494;51.796;10.952;2022-08-19T14:51:07;5.13;;;3.80;;
10882;SDS011;5494;51.796;10.952;2022-08-19T14:53:38;4.70;;;4.20;;
10882;SDS011;5494;51.796;10.952;2022-08-19T14:56:07;6.03;;;4.50;;
10882;SDS011;5494;51.796;10.952;2022-08-19T14:58:38;4.30;;;3.77;;
10882;SDS011;5494;51.796;10.952;2022-08-19T15:01:09;4.13;;;3.73;;